sensor_id;sensor_type;location;lat;lon;timestamp;pressure;altitude;pressure_sealevel;temperature;humidity
30875;BME280;17581;43.222;27.924;2023-12-20T00:00:02;101083.13;;;8.18;70.10
30875;BME280;17581;43.222;27.924;2023-12-20T00:02:28;101100.63;;;8.23;70.34
30875;BME280;17581;43.222;27.924;2023-12-20T00:04:54;101098.81;;;8.24;69.66
30875;BME280;17581;43.222;27.924;2023-12-20T00:07:19;101081.88;;;8.23;69.96
30875;BME280;17581;43.222;27.924;2023-12-20T00:09:45;101094.81;;;8.31;69.75
30875;BME280;17581;43.222;27.924;2023-12-20T00:12:10;101096.53;;;8.32;69.73
30875;BME280;17581;43.222;27.924;2023-12-20T00:14:35;101083.44;;;8.28;70.11
30875;BME280;17581;43.222;27.924;2023-12-20T00:17:01;101089.66;;;8.28;70.26
30875;BME280;17581;43.222;27.924;2023-12-20T00:19:27;101084.97;;;8.32;70.34
30875;BME280;17581;43.222;27.924;2023-12-20T00:21:52;101088.84;;;8.26;70.00
30875;BME280;17581;43.222;27.924;2023-12-20T00:24:17;101073.94;;;8.22;70.73
30875;BME280;17581;43.222;27.924;2023-12-20T00:26:43;101061.38;;;8.22;71.13
30875;BME280;17581;43.222;27.924;2023-12-20T00:29:08;101052.78;;;8.17;70.53
30875;BME280;17581;43.222;27.924;2023-12-20T00:31:34;101075.09;;;8.18;70.08
30875;BME280;17581;43.222;27.924;2023-12-20T00:33:59;101058.81;;;8.21;70.02
30875;BME280;17581;43.222;27.924;2023-12-20T00:36:25;101054.00;;;8.26;70.15
30875;BME280;17581;43.222;27.924;2023-12-20T00:38:50;101028.69;;;8.17;70.20
30875;BME280;17581;43.222;27.924;2023-12-20T00:41:17;101055.56;;;8.30;70.59
30875;BME280;17581;43.222;27.924;2023-12-20T00:43:42;101037.47;;;8.19;70.52
30875;BME280;17581;43.222;27.924;2023-12-20T00:46:08;101045.81;;;8.15;70.61
30875;BME280;17581;43.222;27.924;2023-12-20T00:48:33;101054.00;;;8.26;70.85
30875;BME280;17581;43.222;27.924;2023-12-20T00:50:58;101047.34;;;8.33;71.28
30875;BME280;17581;43.222;27.924;2023-12-20T00:53:24;101040.38;;;8.31;71.00
30875;BME280;17581;43.222;27.924;2023-12-20T00:55:50;101055.50;;;8.32;70.40
30875;BME280;17581;43.222;27.924;2023-12-20T00:58:15;101048.59;;;8.28;70.43
30875;BME280;17581;43.222;27.924;2023-12-20T01:00:41;101043.59;;;8.21;70.06
30875;BME280;17581;43.222;27.924;2023-12-20T01:03:08;101034.72;;;8.21;70.00
30875;BME280;17581;43.222;27.924;2023-12-20T01:05:33;101029.84;;;8.13;69.97
30875;BME280;17581;43.222;27.924;2023-12-20T01:07:59;101040.66;;;8.12;70.08
30875;BME280;17581;43.222;27.924;2023-12-20T01:10:25;101018.69;;;7.93;69.43
30875;BME280;17581;43.222;27.924;2023-12-20T01:12:53;101034.75;;;8.07;70.56
30875;BME280;17581;43.222;27.924;2023-12-20T01:15:19;101032.28;;;8.04;70.31
30875;BME280;17581;43.222;27.924;2023-12-20T01:17:44;101004.75;;;7.88;70.26
30875;BME280;17581;43.222;27.924;2023-12-20T01:20:10;101028.06;;;8.00;70.05
30875;BME280;17581;43.222;27.924;2023-12-20T01:22:36;101031.09;;;8.08;70.00
30875;BME280;17581;43.222;27.924;2023-12-20T01:25:01;101016.00;;;8.07;69.83
30875;BME280;17581;43.222;27.924;2023-12-20T01:27:28;101014.28;;;8.06;69.61
30875;BME280;17581;43.222;27.924;2023-12-20T01:29:53;101012.75;;;8.02;69.79
30875;BME280;17581;43.222;27.924;2023-12-20T01:32:19;101021.34;;;8.07;69.44
30875;BME280;17581;43.222;27.924;2023-12-20T01:34:45;101011.59;;;8.06;69.52
30875;BME280;17581;43.222;27.924;2023-12-20T01:37:10;101005.09;;;7.96;69.49
30875;BME280;17581;43.222;27.924;2023-12-20T01:39:36;101006.84;;;7.97;68.87
30875;BME280;17581;43.222;27.924;2023-12-20T01:42:01;101003.22;;;7.98;69.50
30875;BME280;17581;43.222;27.924;2023-12-20T01:44:27;100977.56;;;7.94;69.95
30875;BME280;17581;43.222;27.924;2023-12-20T01:46:53;100992.09;;;7.90;69.25
30875;BME280;17581;43.222;27.924;2023-12-20T01:49:19;100980.09;;;7.83;69.61
30875;BME280;17581;43.222;27.924;2023-12-20T01:51:45;100966.13;;;7.78;69.60
30875;BME280;17581;43.222;27.924;2023-12-20T01:54:11;100968.00;;;7.90;69.10
30875;BME280;17581;43.222;27.924;2023-12-20T01:56:37;100955.47;;;7.90;69.41
30875;BME280;17581;43.222;27.924;2023-12-20T01:59:03;100958.91;;;7.92;69.07
30875;BME280;17581;43.222;27.924;2023-12-20T02:01:30;100948.41;;;7.89;68.07
30875;BME280;17581;43.222;27.924;2023-12-20T02:03:56;100949.84;;;7.81;68.35
30875;BME280;17581;43.222;27.924;2023-12-20T02:06:23;100916.38;;;7.61;68.47
30875;BME280;17581;43.222;27.924;2023-12-20T02:08:49;100941.28;;;7.76;68.92
30875;BME280;17581;43.222;27.924;2023-12-20T02:11:15;100937.44;;;7.80;69.17
30875;BME280;17581;43.222;27.924;2023-12-20T02:13:41;100941.06;;;7.79;68.89
30875;BME280;17581;43.222;27.924;2023-12-20T02:16:06;100920.06;;;7.73;68.13
30875;BME280;17581;43.222;27.924;2023-12-20T02:18:33;100907.81;;;7.68;68.42
30875;BME280;17581;43.222;27.924;2023-12-20T02:20:58;100914.69;;;7.73;68.38
30875;BME280;17581;43.222;27.924;2023-12-20T02:23:24;100907.22;;;7.78;68.33
30875;BME280;17581;43.222;27.924;2023-12-20T02:25:49;100900.44;;;7.72;68.58
30875;BME280;17581;43.222;27.924;2023-12-20T02:28:15;100885.28;;;7.58;68.62
30875;BME280;17581;43.222;27.924;2023-12-20T02:30:41;100907.41;;;7.75;68.07
30875;BME280;17581;43.222;27.924;2023-12-20T02:33:10;100902.19;;;7.73;68.18
30875;BME280;17581;43.222;27.924;2023-12-20T02:35:37;100890.16;;;7.66;68.71
30875;BME280;17581;43.222;27.924;2023-12-20T02:38:03;100891.97;;;7.65;68.41
30875;BME280;17581;43.222;27.924;2023-12-20T02:40:28;100871.16;;;7.56;68.66
30875;BME280;17581;43.222;27.924;2023-12-20T02:42:54;100874.09;;;7.66;68.40
30875;BME280;17581;43.222;27.924;2023-12-20T02:45:19;100868.28;;;7.59;68.25
30875;BME280;17581;43.222;27.924;2023-12-20T02:47:45;100887.88;;;7.60;68.04
30875;BME280;17581;43.222;27.924;2023-12-20T02:50:10;100887.00;;;7.59;68.77
30875;BME280;17581;43.222;27.924;2023-12-20T02:52:36;100846.19;;;7.29;68.72
30875;BME280;17581;43.222;27.924;2023-12-20T02:55:02;100851.88;;;7.37;68.66
30875;BME280;17581;43.222;27.924;2023-12-20T02:57:27;100887.75;;;7.61;68.75
30875;BME280;17581;43.222;27.924;2023-12-20T02:59:53;100878.03;;;7.60;69.13
30875;BME280;17581;43.222;27.924;2023-12-20T03:02:18;100879.72;;;7.61;68.87
30875;BME280;17581;43.222;27.924;2023-12-20T03:04:44;100888.28;;;7.54;68.17
30875;BME280;17581;43.222;27.924;2023-12-20T03:07:10;100865.06;;;7.40;68.47
30875;BME280;17581;43.222;27.924;2023-12-20T03:09:37;100878.50;;;7.53;68.43
30875;BME280;17581;43.222;27.924;2023-12-20T03:12:03;100882.25;;;7.50;68.59
30875;BME280;17581;43.222;27.924;2023-12-20T03:14:28;100877.09;;;7.47;68.74
30875;BME280;17581;43.222;27.924;2023-12-20T03:16:54;100892.75;;;7.53;68.56
30875;BME280;17581;43.222;27.924;2023-12-20T03:19:20;100884.84;;;7.52;68.49
30875;BME280;17581;43.222;27.924;2023-12-20T03:21:45;100877.69;;;7.38;68.35
30875;BME280;17581;43.222;27.924;2023-12-20T03:24:11;100874.84;;;7.27;68.87
30875;BME280;17581;43.222;27.924;2023-12-20T03:26:36;100885.44;;;7.29;69.12
30875;BME280;17581;43.222;27.924;2023-12-20T03:29:02;100880.66;;;7.34;69.35
30875;BME280;17581;43.222;27.924;2023-12-20T03:31:27;100860.50;;;7.28;69.43
30875;BME280;17581;43.222;27.924;2023-12-20T03:33:53;100877.50;;;7.41;69.30
30875;BME280;17581;43.222;27.924;2023-12-20T03:36:19;100879.97;;;7.44;69.08
30875;BME280;17581;43.222;27.924;2023-12-20T03:38:45;100859.72;;;7.40;69.01
30875;BME280;17581;43.222;27.924;2023-12-20T03:41:11;100872.28;;;7.52;68.37
30875;BME280;17581;43.222;27.924;2023-12-20T03:43:36;100865.25;;;7.37;68.54
30875;BME280;17581;43.222;27.924;2023-12-20T03:46:03;100820.81;;;7.08;68.38
30875;BME280;17581;43.222;27.924;2023-12-20T03:48:30;100865.44;;;7.34;68.72
30875;BME280;17581;43.222;27.924;2023-12-20T03:50:56;100869.09;;;7.33;69.01
30875;BME280;17581;43.222;27.924;2023-12-20T03:53:22;100857.44;;;7.34;68.70
30875;BME280;17581;43.222;27.924;2023-12-20T03:55:48;100869.66;;;7.38;68.96
30875;BME280;17581;43.222;27.924;2023-12-20T03:58:13;100870.53;;;7.39;68.93
30875;BME280;17581;43.222;27.924;2023-12-20T04:00:39;100862.50;;;7.39;68.51
30875;BME280;17581;43.222;27.924;2023-12-20T04:03:04;100857.34;;;7.36;68.71
30875;BME280;17581;43.222;27.924;2023-12-20T04:05:30;100855.63;;;7.35;68.56
30875;BME280;17581;43.222;27.924;2023-12-20T04:07:55;100857.63;;;7.31;68.08
30875;BME280;17581;43.222;27.924;2023-12-20T04:10:21;100844.44;;;7.28;68.46
30875;BME280;17581;43.222;27.924;2023-12-20T04:12:46;100845.44;;;7.13;68.54
30875;BME280;17581;43.222;27.924;2023-12-20T04:15:12;100849.91;;;7.12;68.83
30875;BME280;17581;43.222;27.924;2023-12-20T04:17:37;100831.19;;;7.12;69.31
30875;BME280;17581;43.222;27.924;2023-12-20T04:20:03;100834.25;;;7.06;69.26
30875;BME280;17581;43.222;27.924;2023-12-20T04:22:29;100837.25;;;7.02;68.98
30875;BME280;17581;43.222;27.924;2023-12-20T04:24:54;100829.81;;;6.93;69.47
30875;BME280;17581;43.222;27.924;2023-12-20T04:27:20;100834.41;;;6.91;69.72
30875;BME280;17581;43.222;27.924;2023-12-20T04:29:46;100828.28;;;6.75;70.03
30875;BME280;17581;43.222;27.924;2023-12-20T04:32:11;100826.56;;;6.74;70.12
30875;BME280;17581;43.222;27.924;2023-12-20T04:34:37;100801.09;;;6.54;70.18
30875;BME280;17581;43.222;27.924;2023-12-20T04:37:02;100836.50;;;6.72;70.61
30875;BME280;17581;43.222;27.924;2023-12-20T04:39:30;100840.09;;;6.71;71.08
30875;BME280;17581;43.222;27.924;2023-12-20T04:41:57;100835.56;;;6.73;70.86
30875;BME280;17581;43.222;27.924;2023-12-20T04:44:24;100810.59;;;6.58;70.93
30875;BME280;17581;43.222;27.924;2023-12-20T04:46:50;100817.69;;;6.59;71.15
30875;BME280;17581;43.222;27.924;2023-12-20T04:49:15;100809.94;;;6.54;71.76
30875;BME280;17581;43.222;27.924;2023-12-20T04:51:41;100820.25;;;6.61;71.66
30875;BME280;17581;43.222;27.924;2023-12-20T04:54:06;100809.00;;;6.55;71.90
30875;BME280;17581;43.222;27.924;2023-12-20T04:56:32;100822.66;;;6.65;71.66
30875;BME280;17581;43.222;27.924;2023-12-20T04:58:57;100803.56;;;6.57;71.86
30875;BME280;17581;43.222;27.924;2023-12-20T05:01:22;100827.63;;;6.71;71.34
30875;BME280;17581;43.222;27.924;2023-12-20T05:03:48;100811.66;;;6.55;71.65
30875;BME280;17581;43.222;27.924;2023-12-20T05:06:13;100792.41;;;6.50;71.92
30875;BME280;17581;43.222;27.924;2023-12-20T05:08:40;100799.91;;;6.58;71.80
30875;BME280;17581;43.222;27.924;2023-12-20T05:11:06;100814.44;;;6.68;71.44
30875;BME280;17581;43.222;27.924;2023-12-20T05:13:31;100800.72;;;6.60;72.02
30875;BME280;17581;43.222;27.924;2023-12-20T05:15:57;100799.06;;;6.57;72.18
30875;BME280;17581;43.222;27.924;2023-12-20T05:18:22;100814.50;;;6.67;72.67
30875;BME280;17581;43.222;27.924;2023-12-20T05:20:49;100809.16;;;6.67;72.62
30875;BME280;17581;43.222;27.924;2023-12-20T05:23:15;100780.66;;;6.53;72.55
30875;BME280;17581;43.222;27.924;2023-12-20T05:25:41;100800.41;;;6.65;72.15
30875;BME280;17581;43.222;27.924;2023-12-20T05:28:06;100812.59;;;6.83;72.40
30875;BME280;17581;43.222;27.924;2023-12-20T05:30:32;100802.91;;;6.82;72.31
30875;BME280;17581;43.222;27.924;2023-12-20T05:32:57;100808.28;;;6.94;72.46
30875;BME280;17581;43.222;27.924;2023-12-20T05:35:23;100807.28;;;6.97;71.52
30875;BME280;17581;43.222;27.924;2023-12-20T05:37:49;100807.28;;;6.97;71.54
30875;BME280;17581;43.222;27.924;2023-12-20T05:40:14;100796.56;;;6.97;71.11
30875;BME280;17581;43.222;27.924;2023-12-20T05:42:40;100797.00;;;7.03;71.33
30875;BME280;17581;43.222;27.924;2023-12-20T05:45:06;100787.56;;;6.98;70.75
30875;BME280;17581;43.222;27.924;2023-12-20T05:47:31;100800.28;;;7.08;71.52
30875;BME280;17581;43.222;27.924;2023-12-20T05:49:57;100776.88;;;6.98;71.18
30875;BME280;17581;43.222;27.924;2023-12-20T05:52:22;100776.22;;;6.94;70.48
30875;BME280;17581;43.222;27.924;2023-12-20T05:54:48;100794.72;;;7.11;70.36
30875;BME280;17581;43.222;27.924;2023-12-20T05:57:14;100804.06;;;7.19;70.69
30875;BME280;17581;43.222;27.924;2023-12-20T05:59:39;100789.66;;;7.07;70.75
30875;BME280;17581;43.222;27.924;2023-12-20T06:02:05;100806.66;;;7.20;70.50
30875;BME280;17581;43.222;27.924;2023-12-20T06:04:31;100779.94;;;7.06;70.79
30875;BME280;17581;43.222;27.924;2023-12-20T06:06:56;100800.75;;;7.15;70.35
30875;BME280;17581;43.222;27.924;2023-12-20T06:09:22;100808.56;;;7.18;71.20
30875;BME280;17581;43.222;27.924;2023-12-20T06:11:48;100786.78;;;7.10;71.15
30875;BME280;17581;43.222;27.924;2023-12-20T06:14:13;100786.03;;;7.08;71.60
30875;BME280;17581;43.222;27.924;2023-12-20T06:16:39;100807.00;;;7.28;71.53
30875;BME280;17581;43.222;27.924;2023-12-20T06:19:04;100798.88;;;7.30;70.70
30875;BME280;17581;43.222;27.924;2023-12-20T06:21:30;100791.00;;;7.41;70.96
30875;BME280;17581;43.222;27.924;2023-12-20T06:23:55;100792.81;;;7.40;71.17
30875;BME280;17581;43.222;27.924;2023-12-20T06:26:21;100801.09;;;7.50;70.95
30875;BME280;17581;43.222;27.924;2023-12-20T06:28:46;100811.19;;;7.59;70.73
30875;BME280;17581;43.222;27.924;2023-12-20T06:31:12;100806.09;;;7.68;70.77
30875;BME280;17581;43.222;27.924;2023-12-20T06:33:38;100803.97;;;7.74;70.75
30875;BME280;17581;43.222;27.924;2023-12-20T06:36:05;100798.03;;;7.83;71.60
30875;BME280;17581;43.222;27.924;2023-12-20T06:38:31;100772.50;;;7.77;70.81
30875;BME280;17581;43.222;27.924;2023-12-20T06:40:57;100803.94;;;8.00;71.01
30875;BME280;17581;43.222;27.924;2023-12-20T06:43:23;100810.06;;;8.15;71.27
30875;BME280;17581;43.222;27.924;2023-12-20T06:45:49;100787.47;;;8.19;70.98
30875;BME280;17581;43.222;27.924;2023-12-20T06:48:14;100778.16;;;8.25;70.42
30875;BME280;17581;43.222;27.924;2023-12-20T06:50:40;100801.88;;;8.43;70.10
30875;BME280;17581;43.222;27.924;2023-12-20T06:53:06;100795.97;;;8.51;70.25
30875;BME280;17581;43.222;27.924;2023-12-20T06:55:35;100788.13;;;8.60;70.72
30875;BME280;17581;43.222;27.924;2023-12-20T06:58:03;100792.41;;;8.75;70.25
30875;BME280;17581;43.222;27.924;2023-12-20T07:00:28;100779.63;;;8.92;70.22
30875;BME280;17581;43.222;27.924;2023-12-20T07:02:54;100774.69;;;8.98;70.09
30875;BME280;17581;43.222;27.924;2023-12-20T07:05:19;100760.25;;;9.12;70.07
30875;BME280;17581;43.222;27.924;2023-12-20T07:07:46;100762.56;;;9.29;69.79
30875;BME280;17581;43.222;27.924;2023-12-20T07:10:12;100750.06;;;9.41;69.35
30875;BME280;17581;43.222;27.924;2023-12-20T07:12:38;100759.41;;;9.59;69.30
30875;BME280;17581;43.222;27.924;2023-12-20T07:15:04;100768.13;;;9.73;68.68
30875;BME280;17581;43.222;27.924;2023-12-20T07:17:31;100759.38;;;9.82;68.29
30875;BME280;17581;43.222;27.924;2023-12-20T07:19:58;100748.47;;;9.97;67.57
30875;BME280;17581;43.222;27.924;2023-12-20T07:22:23;100737.97;;;10.05;67.13
30875;BME280;17581;43.222;27.924;2023-12-20T07:24:49;100765.66;;;10.29;66.83
30875;BME280;17581;43.222;27.924;2023-12-20T07:27:17;100752.94;;;10.31;66.78
30875;BME280;17581;43.222;27.924;2023-12-20T07:29:43;100762.25;;;10.49;66.14
30875;BME280;17581;43.222;27.924;2023-12-20T07:32:08;100733.66;;;10.48;65.58
30875;BME280;17581;43.222;27.924;2023-12-20T07:34:34;100744.41;;;10.70;65.21
30875;BME280;17581;43.222;27.924;2023-12-20T07:36:59;100735.84;;;10.76;64.53
30875;BME280;17581;43.222;27.924;2023-12-20T07:39:25;100740.97;;;10.90;64.08
30875;BME280;17581;43.222;27.924;2023-12-20T07:41:50;100748.16;;;11.01;63.56
30875;BME280;17581;43.222;27.924;2023-12-20T07:44:16;100733.13;;;11.10;62.94
30875;BME280;17581;43.222;27.924;2023-12-20T07:46:41;100723.78;;;11.25;63.03
30875;BME280;17581;43.222;27.924;2023-12-20T07:49:07;100712.50;;;11.31;61.67
30875;BME280;17581;43.222;27.924;2023-12-20T07:51:33;100717.13;;;11.40;60.50
30875;BME280;17581;43.222;27.924;2023-12-20T07:53:59;100736.63;;;11.64;60.17
30875;BME280;17581;43.222;27.924;2023-12-20T07:56:24;100733.19;;;11.73;59.90
30875;BME280;17581;43.222;27.924;2023-12-20T07:58:50;100687.91;;;11.56;58.75
30875;BME280;17581;43.222;27.924;2023-12-20T08:01:16;100718.66;;;11.85;59.07
30875;BME280;17581;43.222;27.924;2023-12-20T08:03:42;100724.22;;;12.05;58.39
30875;BME280;17581;43.222;27.924;2023-12-20T08:06:07;100719.97;;;12.12;58.29
30875;BME280;17581;43.222;27.924;2023-12-20T08:08:33;100723.31;;;12.25;57.76
30875;BME280;17581;43.222;27.924;2023-12-20T08:10:58;100712.19;;;12.39;57.42
30875;BME280;17581;43.222;27.924;2023-12-20T08:13:26;100695.34;;;12.46;56.95
30875;BME280;17581;43.222;27.924;2023-12-20T08:15:52;100694.38;;;12.57;57.09
30875;BME280;17581;43.222;27.924;2023-12-20T08:18:17;100698.13;;;12.75;56.29
30875;BME280;17581;43.222;27.924;2023-12-20T08:20:43;100661.16;;;12.66;55.96
30875;BME280;17581;43.222;27.924;2023-12-20T08:23:08;100685.69;;;13.03;55.66
30875;BME280;17581;43.222;27.924;2023-12-20T08:25:34;100681.78;;;13.17;54.68
30875;BME280;17581;43.222;27.924;2023-12-20T08:27:59;100671.00;;;13.26;54.44
30875;BME280;17581;43.222;27.924;2023-12-20T08:30:25;100657.94;;;13.41;53.82
30875;BME280;17581;43.222;27.924;2023-12-20T08:32:51;100655.94;;;13.62;52.92
30875;BME280;17581;43.222;27.924;2023-12-20T08:35:17;100662.88;;;13.84;51.91
30875;BME280;17581;43.222;27.924;2023-12-20T08:37:44;100649.34;;;13.93;52.03
30875;BME280;17581;43.222;27.924;2023-12-20T08:40:09;100645.06;;;14.00;51.75
30875;BME280;17581;43.222;27.924;2023-12-20T08:42:35;100651.81;;;14.24;51.52
30875;BME280;17581;43.222;27.924;2023-12-20T08:45:01;100646.97;;;14.37;51.12
30875;BME280;17581;43.222;27.924;2023-12-20T08:47:26;100630.81;;;14.45;50.80
30875;BME280;17581;43.222;27.924;2023-12-20T08:49:52;100615.50;;;14.63;50.62
30875;BME280;17581;43.222;27.924;2023-12-20T08:52:23;100623.94;;;14.78;50.26
30875;BME280;17581;43.222;27.924;2023-12-20T08:54:50;100615.06;;;14.85;49.68
30875;BME280;17581;43.222;27.924;2023-12-20T08:57:19;100630.34;;;15.04;49.42
30875;BME280;17581;43.222;27.924;2023-12-20T08:59:45;100626.09;;;15.01;49.28
30875;BME280;17581;43.222;27.924;2023-12-20T09:02:11;100608.50;;;15.05;49.29
30875;BME280;17581;43.222;27.924;2023-12-20T09:04:37;100604.56;;;15.17;49.70
30875;BME280;17581;43.222;27.924;2023-12-20T09:07:02;100573.53;;;15.12;49.40
30875;BME280;17581;43.222;27.924;2023-12-20T09:09:28;100567.34;;;15.19;49.36
30875;BME280;17581;43.222;27.924;2023-12-20T09:11:53;100603.34;;;15.47;49.54
30875;BME280;17581;43.222;27.924;2023-12-20T09:14:19;100572.66;;;15.47;49.03
30875;BME280;17581;43.222;27.924;2023-12-20T09:16:44;100565.28;;;15.57;49.33
30875;BME280;17581;43.222;27.924;2023-12-20T09:19:10;100564.28;;;15.58;49.24
30875;BME280;17581;43.222;27.924;2023-12-20T09:21:35;100574.19;;;15.67;49.08
30875;BME280;17581;43.222;27.924;2023-12-20T09:24:01;100541.75;;;15.57;49.15
30875;BME280;17581;43.222;27.924;2023-12-20T09:26:26;100535.66;;;15.55;48.86
30875;BME280;17581;43.222;27.924;2023-12-20T09:28:51;100537.22;;;15.66;48.64
30875;BME280;17581;43.222;27.924;2023-12-20T09:31:17;100555.97;;;15.77;48.52
30875;BME280;17581;43.222;27.924;2023-12-20T09:33:42;100546.47;;;15.81;48.33
30875;BME280;17581;43.222;27.924;2023-12-20T09:36:08;100534.84;;;15.89;48.35
30875;BME280;17581;43.222;27.924;2023-12-20T09:38:33;100539.47;;;15.70;47.55
30875;BME280;17581;43.222;27.924;2023-12-20T09:41:00;100539.31;;;15.72;48.42
30875;BME280;17581;43.222;27.924;2023-12-20T09:43:27;100507.25;;;15.67;48.63
30875;BME280;17581;43.222;27.924;2023-12-20T09:46:00;100525.16;;;15.86;48.70
30875;BME280;17581;43.222;27.924;2023-12-20T09:48:27;100514.78;;;15.82;48.37
30875;BME280;17581;43.222;27.924;2023-12-20T09:50:54;100496.66;;;15.82;48.58
30875;BME280;17581;43.222;27.924;2023-12-20T09:53:21;100467.97;;;15.71;48.09
30875;BME280;17581;43.222;27.924;2023-12-20T09:55:48;100496.84;;;15.81;47.82
30875;BME280;17581;43.222;27.924;2023-12-20T09:58:14;100466.38;;;15.61;47.46
30875;BME280;17581;43.222;27.924;2023-12-20T10:00:40;100458.09;;;15.62;47.70
30875;BME280;17581;43.222;27.924;2023-12-20T10:03:06;100458.59;;;15.66;47.84
30875;BME280;17581;43.222;27.924;2023-12-20T10:05:33;100476.47;;;15.76;47.19
30875;BME280;17581;43.222;27.924;2023-12-20T10:07:59;100456.28;;;15.71;47.04
30875;BME280;17581;43.222;27.924;2023-12-20T10:10:26;100460.34;;;15.75;47.12
30875;BME280;17581;43.222;27.924;2023-12-20T10:13:10;100477.31;;;15.77;47.13
30875;BME280;17581;43.222;27.924;2023-12-20T10:15:36;100477.31;;;15.51;47.01
30875;BME280;17581;43.222;27.924;2023-12-20T10:18:03;100471.31;;;15.40;47.42
30875;BME280;17581;43.222;27.924;2023-12-20T10:20:31;100472.06;;;15.32;47.72
30875;BME280;17581;43.222;27.924;2023-12-20T10:22:57;100464.56;;;15.44;48.30
30875;BME280;17581;43.222;27.924;2023-12-20T10:25:24;100458.50;;;15.24;48.35
30875;BME280;17581;43.222;27.924;2023-12-20T10:28:11;100451.50;;;15.13;48.62
30875;BME280;17581;43.222;27.924;2023-12-20T10:30:37;100436.88;;;15.06;48.92
30875;BME280;17581;43.222;27.924;2023-12-20T10:33:03;100433.78;;;15.01;49.36
30875;BME280;17581;43.222;27.924;2023-12-20T10:35:28;100442.88;;;15.18;50.23
30875;BME280;17581;43.222;27.924;2023-12-20T10:37:56;100444.94;;;15.24;50.71
30875;BME280;17581;43.222;27.924;2023-12-20T10:40:25;100438.97;;;15.20;51.42
30875;BME280;17581;43.222;27.924;2023-12-20T10:42:55;100425.06;;;15.15;51.55
30875;BME280;17581;43.222;27.924;2023-12-20T10:45:22;100411.34;;;15.17;52.25
30875;BME280;17581;43.222;27.924;2023-12-20T10:47:49;100437.88;;;15.31;52.39
30875;BME280;17581;43.222;27.924;2023-12-20T10:50:15;100421.41;;;15.24;52.45
30875;BME280;17581;43.222;27.924;2023-12-20T10:52:42;100403.03;;;15.10;51.98
30875;BME280;17581;43.222;27.924;2023-12-20T10:55:08;100415.31;;;15.22;52.05
30875;BME280;17581;43.222;27.924;2023-12-20T10:57:36;100410.22;;;15.19;51.92
30875;BME280;17581;43.222;27.924;2023-12-20T11:00:02;100413.59;;;15.21;51.58
30875;BME280;17581;43.222;27.924;2023-12-20T11:02:37;100403.44;;;15.23;51.44
30875;BME280;17581;43.222;27.924;2023-12-20T11:05:16;100399.31;;;15.11;51.08
30875;BME280;17581;43.222;27.924;2023-12-20T11:07:48;100395.84;;;15.27;50.72
30875;BME280;17581;43.222;27.924;2023-12-20T11:10:23;100391.31;;;15.36;50.33
30875;BME280;17581;43.222;27.924;2023-12-20T11:12:54;100387.28;;;15.40;49.36
30875;BME280;17581;43.222;27.924;2023-12-20T11:15:22;100391.44;;;15.52;48.76
30875;BME280;17581;43.222;27.924;2023-12-20T11:17:57;100381.88;;;15.65;49.09
30875;BME280;17581;43.222;27.924;2023-12-20T11:20:24;100378.50;;;15.79;48.39
30875;BME280;17581;43.222;27.924;2023-12-20T11:23:00;100363.97;;;15.97;47.77
30875;BME280;17581;43.222;27.924;2023-12-20T11:25:26;100366.81;;;15.87;47.78
30875;BME280;17581;43.222;27.924;2023-12-20T11:28:10;100378.44;;;16.05;47.65
30875;BME280;17581;43.222;27.924;2023-12-20T11:30:54;100374.72;;;16.22;47.46
30875;BME280;17581;43.222;27.924;2023-12-20T11:33:27;100339.13;;;16.17;47.93
30875;BME280;17581;43.222;27.924;2023-12-20T11:35:59;100365.72;;;16.14;49.93
30875;BME280;17581;43.222;27.924;2023-12-20T11:38:25;100339.16;;;15.75;51.44
30875;BME280;17581;43.222;27.924;2023-12-20T11:40:53;100352.19;;;15.72;52.92
30875;BME280;17581;43.222;27.924;2023-12-20T11:43:32;100343.72;;;15.67;53.57
30875;BME280;17581;43.222;27.924;2023-12-20T11:46:05;100343.75;;;15.75;54.39
30875;BME280;17581;43.222;27.924;2023-12-20T11:48:32;100347.81;;;15.71;54.99
30875;BME280;17581;43.222;27.924;2023-12-20T11:50:58;100314.31;;;15.46;54.69
30875;BME280;17581;43.222;27.924;2023-12-20T11:53:23;100327.63;;;15.65;54.43
30875;BME280;17581;43.222;27.924;2023-12-20T11:55:50;100331.13;;;15.50;55.08
30875;BME280;17581;43.222;27.924;2023-12-20T11:58:16;100323.38;;;15.63;55.07
30875;BME280;17581;43.222;27.924;2023-12-20T12:00:42;100316.63;;;15.75;53.93
30875;BME280;17581;43.222;27.924;2023-12-20T12:03:09;100322.09;;;15.91;54.20
30875;BME280;17581;43.222;27.924;2023-12-20T12:05:34;100305.50;;;15.94;53.75
30875;BME280;17581;43.222;27.924;2023-12-20T12:08:01;100314.16;;;16.06;52.75
30875;BME280;17581;43.222;27.924;2023-12-20T12:10:26;100313.47;;;16.04;52.86
30875;BME280;17581;43.222;27.924;2023-12-20T12:12:52;100303.44;;;15.96;53.00
30875;BME280;17581;43.222;27.924;2023-12-20T12:15:17;100305.16;;;15.89;53.26
30875;BME280;17581;43.222;27.924;2023-12-20T12:17:43;100304.63;;;15.94;53.31
30875;BME280;17581;43.222;27.924;2023-12-20T12:20:08;100301.03;;;15.69;54.21
30875;BME280;17581;43.222;27.924;2023-12-20T12:22:35;100271.72;;;15.22;55.61
30875;BME280;17581;43.222;27.924;2023-12-20T12:25:12;100291.75;;;15.38;56.19
30875;BME280;17581;43.222;27.924;2023-12-20T12:27:42;100271.41;;;15.25;56.81
30875;BME280;17581;43.222;27.924;2023-12-20T12:30:09;100261.88;;;15.13;57.07
30875;BME280;17581;43.222;27.924;2023-12-20T12:32:35;100255.88;;;15.02;57.81
30875;BME280;17581;43.222;27.924;2023-12-20T12:35:04;100270.78;;;15.06;57.79
30875;BME280;17581;43.222;27.924;2023-12-20T12:37:33;100267.09;;;15.15;58.32
30875;BME280;17581;43.222;27.924;2023-12-20T12:39:59;100253.88;;;15.12;58.36